Terminal Aerodrome Forecast
Issued by NWS Wilmington, NC

Home | Current Version | Previous Version | Text Only | Print | Product List | Glossary On
Versions: 1 2 3 4 5 6 7 8 9 10 11 12 13
000
FTUS42 KILM 250500
TAFILM
TAF
KILM 250538Z 2506/2606 14004KT P6SM SCT040 SCT250
     FM251000 14003KT P6SM VCSH SCT025 BKN040
      TEMPO 2510/2514 BKN020
     FM251400 18010G18KT P6SM VCSH SCT015 BKN035
     FM252100 20015G25KT 5SM -SHRA BKN020 BKN040
     FM252300 21012G22KT P6SM VCSH SCT020 BKN050
     FM260200 23007KT P6SM SCT020 BKN050=

USA.gov is the U.S. government's official web portal to all federal, state and local government web resources and services.